| time (UTC) | temp F | wind direction | speed knots | gust knots | rain 1hr in | rain 24hr in | rain mn in | humidity % | barometer mb |
| 20260507101000 | 48 | 111 | 1.7 | 3.5 | 0.00 | 0.00 | 0.00 | 46 | 1020.4 |
| 20260507100004 | 49 | 98 | 0.0 | 3.5 | 0.00 | 0.00 | 0.00 | 46 | 1020.3 |
| 20260507095000 | 49 | 41 | 0.9 | 2.6 | 0.00 | 0.00 | 0.00 | 45 | 1020.6 |
| 20260507094002 | 49 | 178 | 1.7 | 3.5 | 0.00 | 0.00 | 0.00 | 46 | 1020.5 |
| 20260507093001 | 49 | 178 | 0.9 | 3.5 | 0.00 | 0.00 | 0.00 | 46 | 1020.5 |
| 20260507092001 | 49 | 178 | 0.9 | 2.6 | 0.00 | 0.00 | 0.00 | 46 | 1020.5 |
| 20260507090002 | 50 | 178 | 1.7 | 3.5 | 0.00 | 0.00 | 0.00 | 45 | 1020.5 |
| 20260507084002 | 50 | 178 | 1.7 | 4.3 | 0.00 | 0.00 | 0.00 | 45 | 1020.7 |
| 20260507083000 | 50 | 178 | 2.6 | 4.3 | 0.00 | 0.00 | 0.00 | 44 | 1020.7 |
| 20260507082001 | 50 | 178 | 1.7 | 4.3 | 0.00 | 0.00 | 0.00 | 44 | 1020.8 |
| 20260507081001 | 50 | 178 | 1.7 | 3.5 | 0.00 | 0.00 | 0.00 | 44 | 1020.8 |
| 20260507080004 | 50 | 178 | 2.6 | 5.2 | 0.00 | 0.00 | 0.00 | 43 | 1020.9 |
| 20260507075002 | 51 | 178 | 3.5 | 7.0 | 0.00 | 0.00 | 0.00 | 43 | 1020.7 |
| 20260507074003 | 51 | 178 | 2.6 | 4.3 | 0.00 | 0.00 | 0.00 | 43 | 1020.7 |
| 20260507073002 | 51 | 178 | 1.7 | 4.3 | 0.00 | 0.00 | 0.00 | 42 | 1020.5 |
| 20260507072002 | 52 | 178 | 2.6 | 4.3 | 0.00 | 0.00 | 0.00 | 42 | 1020.4 |
| 20260507071003 | 52 | 178 | 2.6 | 4.3 | 0.00 | 0.00 | 0.00 | 41 | 1020.3 |
| 20260507070011 | 52 | 178 | 1.7 | 3.5 | 0.00 | 0.00 | 0.00 | 41 | 1020.5 |
| 20260507065002 | 53 | 178 | 1.7 | 3.5 | 0.00 | 0.00 | 0.00 | 41 | 1020.4 |
| 20260507064003 | 53 | 178 | 1.7 | 3.5 | 0.00 | 0.00 | 0.00 | 41 | 1020.4 |
| 20260507063004 | 53 | 178 | 2.6 | 4.3 | 0.00 | 0.00 | 0.00 | 40 | 1020.4 |
| 20260507062003 | 53 | 178 | 1.7 | 4.3 | 0.00 | 0.00 | 0.00 | 40 | 1020.3 |
| 20260507061003 | 54 | 178 | 1.7 | 5.2 | 0.00 | 0.00 | 0.00 | 40 | 1020.4 |
| 20260507060003 | 54 | 178 | 1.7 | 3.5 | 0.00 | 0.00 | 0.00 | 39 | 1020.3 |
| 20260507055004 | 54 | 178 | 1.7 | 3.5 | 0.00 | 0.00 | 0.00 | 39 | 1020.3 |
| 20260507054002 | 54 | 178 | 2.6 | 4.3 | 0.00 | 0.00 | 0.00 | 39 | 1020.2 |
| 20260507053005 | 55 | 178 | 2.6 | 4.3 | 0.00 | 0.00 | 0.00 | 37 | 1020.3 |
| 20260507052003 | 55 | 178 | 2.6 | 5.2 | 0.00 | 0.00 | 0.00 | 37 | 1020.2 |
| 20260507051003 | 56 | 178 | 2.6 | 7.0 | 0.00 | 0.00 | 0.00 | 36 | 1020.1 |
| 20260507045002 | 57 | 178 | 1.7 | 3.5 | 0.00 | 0.00 | 0.00 | 35 | 1020.0 |
| 20260507044001 | 58 | 178 | 1.7 | 3.5 | 0.00 | 0.00 | 0.00 | 34 | 1020.0 |
| 20260507043001 | 58 | 178 | 0.9 | 2.6 | 0.00 | 0.00 | 0.00 | 34 | 1019.9 |
| 20260507041003 | 59 | 178 | 0.9 | 2.6 | 0.00 | 0.00 | 0.00 | 33 | 1019.7 |
| 20260507040003 | 60 | 178 | 0.9 | 3.5 | 0.00 | 0.00 | 0.00 | 33 | 1019.5 |
| 20260507035001 | 60 | 178 | 0.9 | 3.5 | 0.00 | 0.00 | 0.00 | 32 | 1019.4 |
| 20260507034003 | 61 | 178 | 0.9 | 2.6 | 0.00 | 0.00 | 0.00 | 31 | 1019.2 |
| 20260507033004 | 62 | 178 | 0.9 | 3.5 | 0.00 | 0.00 | 0.00 | 31 | 1018.9 |
| 20260507032003 | 62 | 178 | 2.6 | 5.2 | 0.00 | 0.00 | 0.00 | 31 | 1018.7 |
| 20260507030003 | 63 | 178 | 2.6 | 7.0 | 0.00 | 0.00 | 0.00 | 30 | 1018.4 |
| 20260507025003 | 64 | 178 | 4.3 | 7.8 | 0.00 | 0.00 | 0.00 | 29 | 1018.1 |
| 20260507024003 | 64 | 178 | 3.5 | 7.8 | 0.00 | 0.00 | 0.00 | 29 | 1018.0 |
| 20260507023003 | 65 | 178 | 4.3 | 8.7 | 0.00 | 0.00 | 0.00 | 29 | 1018.0 |
| 20260507022003 | 65 | 178 | 4.3 | 7.8 | 0.00 | 0.00 | 0.00 | 28 | 1017.9 |
| 20260507020004 | 67 | 178 | 7.0 | 11.3 | 0.00 | 0.00 | 0.00 | 27 | 1017.8 |
| 20260507015001 | 67 | 178 | 7.0 | 11.3 | 0.00 | 0.00 | 0.00 | 27 | 1017.8 |
| 20260507014002 | 68 | 178 | 7.8 | 14.8 | 0.00 | 0.00 | 0.00 | 27 | 1017.6 |
| 20260507013004 | 69 | 178 | 7.8 | 11.3 | 0.00 | 0.00 | 0.00 | 26 | 1017.6 |
| 20260507012001 | 70 | 178 | 7.0 | 13.9 | 0.00 | 0.00 | 0.00 | 26 | 1017.6 |
| 20260507011001 | 70 | 178 | 4.3 | 8.7 | 0.00 | 0.00 | 0.00 | 25 | 1017.5 |
| 20260507010005 | 72 | 178 | 4.3 | 9.6 | 0.00 | 0.00 | 0.00 | 24 | 1017.5 |
| 20260507005003 | 74 | 178 | 5.2 | 10.4 | 0.00 | 0.00 | 0.00 | 22 | 1017.2 |
| 20260507004004 | 74 | 178 | 6.1 | 14.8 | 0.00 | 0.00 | 0.00 | 21 | 1017.0 |
| 20260507003004 | 74 | 178 | 4.3 | 13.9 | 0.00 | 0.00 | 0.00 | 21 | 1016.8 |
| 20260507001003 | 74 | 178 | 5.2 | 13.0 | 0.00 | 0.00 | 0.00 | 20 | 1016.6 |
| 20260507000005 | 74 | 178 | 6.1 | 15.6 | 0.00 | 0.00 | 0.00 | 21 | 1016.5 |
| 20260506235003 | 74 | 178 | 4.3 | 10.4 | 0.00 | 0.00 | 0.00 | 20 | 1016.5 |
| 20260506234003 | 73 | 178 | 1.7 | 7.0 | 0.00 | 0.00 | 0.00 | 21 | 1016.6 |
| 20260506233003 | 74 | 178 | 4.3 | 10.4 | 0.00 | 0.00 | 0.00 | 20 | 1016.6 |
| 20260506232004 | 74 | 178 | 4.3 | 13.0 | 0.00 | 0.00 | 0.00 | 20 | 1016.6 |
| 20260506230004 | 75 | 178 | 2.6 | 7.8 | 0.00 | 0.00 | 0.00 | 21 | 1016.8 |
| 20260506225002 | 74 | 178 | 3.5 | 10.4 | 0.00 | 0.00 | 0.00 | 21 | 1016.9 |
| 20260506224004 | 74 | 178 | 1.7 | 8.7 | 0.00 | 0.00 | 0.00 | 21 | 1017.0 |
| 20260506223003 | 73 | 178 | 2.6 | 11.3 | 0.00 | 0.00 | 0.00 | 21 | 1017.0 |
| 20260506222003 | 73 | 178 | 2.6 | 9.6 | 0.00 | 0.00 | 0.00 | 21 | 1017.2 |
| 20260506221004 | 72 | 178 | 2.6 | 11.3 | 0.00 | 0.00 | 0.00 | 22 | 1017.4 |
| 20260506220004 | 71 | 178 | 4.3 | 14.8 | 0.00 | 0.00 | 0.00 | 22 | 1017.6 |
| 20260506215003 | 70 | 178 | 2.6 | 8.7 | 0.00 | 0.00 | 0.00 | 23 | 1017.7 |
| 20260506214002 | 72 | 178 | 3.5 | 10.4 | 0.00 | 0.00 | 0.00 | 22 | 1018.0 |
| 20260506213004 | 73 | 178 | 2.6 | 8.7 | 0.00 | 0.00 | 0.00 | 21 | 1018.0 |
| 20260506212003 | 74 | 178 | 3.5 | 8.7 | 0.00 | 0.00 | 0.00 | 21 | 1018.1 |
| 20260506210004 | 74 | 178 | 6.1 | 12.2 | 0.00 | 0.00 | 0.00 | 21 | 1018.1 |
| 20260506205003 | 73 | 178 | 3.5 | 12.2 | 0.00 | 0.00 | 0.00 | 22 | 1018.3 |
| 20260506204002 | 72 | 178 | 2.6 | 9.6 | 0.00 | 0.00 | 0.00 | 22 | 1018.3 |
| 20260506202003 | 71 | 178 | 0.9 | 3.5 | 0.00 | 0.00 | 0.00 | 23 | 1018.5 |
| 20260506200004 | 69 | 178 | 4.3 | 12.2 | 0.00 | 0.00 | 0.00 | 24 | 1018.7 |
| 20260506195002 | 69 | 178 | 4.3 | 11.3 | 0.00 | 0.00 | 0.00 | 24 | 1018.8 |
| 20260506192002 | 69 | 178 | 1.7 | 7.0 | 0.00 | 0.00 | 0.00 | 25 | 1018.9 |
| 20260506191001 | 68 | 178 | 4.3 | 13.9 | 0.00 | 0.00 | 0.00 | 24 | 1019.1 |
| 20260506190005 | 68 | 178 | 3.5 | 8.7 | 0.00 | 0.00 | 0.00 | 24 | 1019.1 |
| 20260506185004 | 67 | 178 | 2.6 | 10.4 | 0.00 | 0.00 | 0.00 | 26 | 1019.1 |
| 20260506183002 | 67 | 178 | 1.7 | 7.0 | 0.00 | 0.00 | 0.00 | 26 | 1019.3 |
| 20260506182003 | 65 | 178 | 4.3 | 12.2 | 0.00 | 0.00 | 0.00 | 26 | 1019.5 |
| 20260506181003 | 64 | 178 | 2.6 | 10.4 | 0.00 | 0.00 | 0.00 | 27 | 1019.4 |
| 20260506180005 | 63 | 178 | 1.7 | 9.6 | 0.00 | 0.00 | 0.00 | 27 | 1019.3 |
| 20260506175002 | 62 | 178 | 1.7 | 7.0 | 0.00 | 0.00 | 0.00 | 29 | 1019.4 |
| 20260506173002 | 61 | 178 | 1.7 | 8.7 | 0.00 | 0.00 | 0.00 | 30 | 1019.4 |
| 20260506172002 | 62 | 178 | 1.7 | 8.7 | 0.00 | 0.00 | 0.00 | 30 | 1019.4 |
| 20260506171026 | 61 | 178 | 2.6 | 7.8 | 0.00 | 0.00 | 0.00 | 31 | 1019.3 |
| 20260506170001 | 60 | 178 | 1.7 | 7.0 | 0.00 | 0.00 | 0.00 | 32 | 1019.2 |
| 20260506165002 | 59 | 178 | 0.9 | 3.5 | 0.00 | 0.00 | 0.00 | 32 | 1019.3 |
| 20260506164003 | 58 | 178 | 1.7 | 7.0 | 0.00 | 0.00 | 0.00 | 33 | 1019.1 |
| 20260506163001 | 58 | 178 | 1.7 | 7.0 | 0.00 | 0.00 | 0.00 | 33 | 1019.1 |
| 20260506162001 | 57 | 178 | 0.9 | 5.2 | 0.00 | 0.00 | 0.00 | 34 | 1019.0 |
| 20260506161002 | 57 | 178 | 1.7 | 5.2 | 0.00 | 0.00 | 0.00 | 35 | 1019.1 |
| 20260506160001 | 56 | 178 | 2.6 | 7.0 | 0.00 | 0.00 | 0.00 | 36 | 1018.9 |
| 20260506155001 | 55 | 178 | 1.7 | 4.3 | 0.00 | 0.00 | 0.00 | 38 | 1018.9 |
| 20260506154001 | 54 | 178 | 1.7 | 4.3 | 0.00 | 0.00 | 0.00 | 39 | 1018.8 |
| 20260506152003 | 54 | 178 | 1.7 | 4.3 | 0.00 | 0.00 | 0.00 | 41 | 1018.7 |
| 20260506151002 | 53 | 178 | 1.7 | 3.5 | 0.00 | 0.00 | 0.00 | 43 | 1018.7 |
| 20260506150002 | 52 | 178 | 1.7 | 5.2 | 0.00 | 0.00 | 0.00 | 43 | 1018.6 |
| 20260506145001 | 52 | 178 | 0.9 | 3.5 | 0.00 | 0.00 | 0.00 | 44 | 1018.5 |
| 20260506144002 | 51 | 178 | 0.9 | 2.6 | 0.00 | 0.00 | 0.00 | 45 | 1018.4 |
| 20260506143001 | 50 | 178 | 0.9 | 3.5 | 0.00 | 0.00 | 0.00 | 47 | 1018.3 |
| 20260506142001 | 48 | 178 | 1.7 | 3.5 | 0.00 | 0.00 | 0.00 | 50 | 1018.4 |
| 20260506135002 | 42 | 60 | 0.9 | 2.6 | 0.00 | 0.00 | 0.00 | 61 | 1017.9 |
| 20260506134003 | 41 | 178 | 0.9 | 2.6 | 0.00 | 0.00 | 0.00 | 62 | 1017.8 |
| 20260506133003 | 40 | 178 | 1.7 | 3.5 | 0.00 | 0.00 | 0.00 | 62 | 1017.9 |
| 20260506132002 | 39 | 65 | 1.7 | 3.5 | 0.00 | 0.00 | 0.00 | 62 | 1017.9 |
| 20260506125003 | 39 | 73 | 0.9 | 2.6 | 0.00 | 0.00 | 0.00 | 62 | 1017.5 |
| 20260506124002 | 39 | 65 | 0.9 | 3.5 | 0.00 | 0.00 | 0.00 | 63 | 1017.4 |
| 20260506122003 | 39 | 84 | 1.7 | 3.5 | 0.00 | 0.00 | 0.00 | 60 | 1017.3 |
| 20260506121002 | 39 | 81 | 1.7 | 3.5 | 0.00 | 0.00 | 0.00 | 60 | 1017.1 |
| 20260506120004 | 39 | 72 | 1.7 | 3.5 | 0.00 | 0.00 | 0.00 | 60 | 1017.1 |
| 20260506115001 | 39 | 80 | 1.7 | 3.5 | 0.00 | 0.00 | 0.00 | 60 | 1017.1 |
| 20260506114000 | 39 | 77 | 2.6 | 5.2 | 0.00 | 0.00 | 0.00 | 61 | 1017.1 |
| 20260506113001 | 39 | 79 | 1.7 | 3.5 | 0.00 | 0.00 | 0.00 | 61 | 1017.3 |
| 20260506112002 | 39 | 71 | 1.7 | 3.5 | 0.00 | 0.00 | 0.00 | 61 | 1017.2 |
| 20260506111000 | 39 | 83 | 1.7 | 3.5 | 0.00 | 0.00 | 0.00 | 60 | 1017.2 |
| 20260506110005 | 40 | 79 | 1.7 | 3.5 | 0.00 | 0.00 | 0.00 | 59 | 1017.0 |
| 20260506102002 | 40 | 108 | 3.5 | 6.1 | 0.00 | 0.00 | 0.00 | 57 | 1016.5 |